createdAt,value
2022-08-25T00:00:17.624Z,3.10
2022-08-25T00:02:55.466Z,3.13
2022-08-25T00:05:32.189Z,2.97
2022-08-25T00:08:02.321Z,2.80
2022-08-25T00:10:33.083Z,3.10
2022-08-25T00:13:04.795Z,2.93
2022-08-25T00:15:33.780Z,3.07
2022-08-25T00:18:02.914Z,3.00
2022-08-25T00:20:32.856Z,3.10
2022-08-25T00:23:01.592Z,3.10
2022-08-25T00:25:31.491Z,3.20
2022-08-25T00:28:03.137Z,3.17
2022-08-25T00:30:36.870Z,3.10
2022-08-25T00:33:05.860Z,2.90
2022-08-25T00:35:35.387Z,3.07
2022-08-25T00:38:04.079Z,3.37
2022-08-25T00:40:34.427Z,3.47
2022-08-25T00:43:03.081Z,3.27
2022-08-25T00:45:31.540Z,3.00
2022-08-25T00:48:00.196Z,3.27
2022-08-25T00:50:30.005Z,3.50
2022-08-25T00:53:01.479Z,3.40
2022-08-25T00:55:34.527Z,3.70
2022-08-25T00:58:10.749Z,3.43
2022-08-25T01:00:42.788Z,3.77
2022-08-25T01:03:12.147Z,3.57
2022-08-25T01:05:42.281Z,3.87
2022-08-25T01:08:11.452Z,4.17
2022-08-25T01:10:46.259Z,4.23
2022-08-25T01:13:21.068Z,4.03
2022-08-25T01:15:54.123Z,4.10
2022-08-25T01:18:23.627Z,3.60
2022-08-25T01:20:54.079Z,4.33
2022-08-25T01:23:23.366Z,3.90
2022-08-25T01:26:03.127Z,4.10
2022-08-25T01:28:31.797Z,4.00
2022-08-25T01:31:00.434Z,3.90
2022-08-25T01:33:29.588Z,4.13
2022-08-25T01:35:59.442Z,4.20
2022-08-25T01:38:28.039Z,4.33
2022-08-25T01:40:56.564Z,4.20
2022-08-25T01:43:37.052Z,4.30
2022-08-25T01:46:05.907Z,4.57
2022-08-25T01:48:34.423Z,4.30
2022-08-25T01:51:04.437Z,4.20
2022-08-25T01:53:33.923Z,4.30
2022-08-25T01:56:11.685Z,4.20
2022-08-25T01:58:42.603Z,4.10
2022-08-25T02:01:13.775Z,4.07
2022-08-25T02:03:44.209Z,4.17
2022-08-25T02:06:18.307Z,4.10
2022-08-25T02:08:47.071Z,4.00
2022-08-25T02:11:17.448Z,4.20
2022-08-25T02:13:46.233Z,4.10
2022-08-25T02:16:20.799Z,4.30
2022-08-25T02:18:49.472Z,4.20
2022-08-25T02:21:19.373Z,4.57
2022-08-25T02:23:47.855Z,4.47
2022-08-25T02:26:19.035Z,4.50
2022-08-25T02:28:48.854Z,4.33
2022-08-25T02:31:19.833Z,4.27
2022-08-25T02:33:48.737Z,4.77
2022-08-25T02:36:19.015Z,4.43
2022-08-25T02:38:47.539Z,4.47
2022-08-25T02:41:20.356Z,4.30
2022-08-25T02:43:50.217Z,4.30
2022-08-25T02:46:21.313Z,4.40
2022-08-25T02:48:52.924Z,4.60
2022-08-25T02:51:25.565Z,4.70
2022-08-25T02:53:54.446Z,4.90
2022-08-25T02:56:23.159Z,4.83
2022-08-25T02:58:51.912Z,5.00
2022-08-25T03:01:20.424Z,4.87
2022-08-25T03:03:52.539Z,5.30
2022-08-25T03:06:24.456Z,5.10
2022-08-25T03:08:54.001Z,5.07
2022-08-25T03:11:24.091Z,5.20
2022-08-25T03:13:52.772Z,5.37
2022-08-25T03:16:21.842Z,5.13
2022-08-25T03:18:50.769Z,5.30
2022-08-25T03:21:19.714Z,5.30
2022-08-25T03:23:49.742Z,5.80
2022-08-25T03:26:35.974Z,5.70
2022-08-25T03:29:05.623Z,5.50
2022-08-25T03:31:35.346Z,6.03
2022-08-25T03:34:04.305Z,5.83
2022-08-25T03:36:33.104Z,5.37
2022-08-25T03:39:03.427Z,5.70
2022-08-25T03:41:33.735Z,5.20
2022-08-25T03:44:04.139Z,5.83
2022-08-25T03:46:36.121Z,6.30
2022-08-25T03:49:06.056Z,5.70
2022-08-25T03:51:37.924Z,5.10
2022-08-25T03:54:09.519Z,5.50
2022-08-25T03:56:38.836Z,5.77
2022-08-25T03:59:09.427Z,5.40
2022-08-25T04:01:38.655Z,5.20
2022-08-25T04:04:08.215Z,5.37
2022-08-25T04:06:36.909Z,5.30
2022-08-25T04:09:07.875Z,6.00
2022-08-25T04:11:36.506Z,5.80
2022-08-25T04:14:05.976Z,6.17
2022-08-25T04:16:36.245Z,5.70
2022-08-25T04:19:09.163Z,5.87
2022-08-25T04:21:39.003Z,5.83
2022-08-25T04:24:10.712Z,5.87
2022-08-25T04:26:43.334Z,5.70
2022-08-25T04:29:13.431Z,5.93
2022-08-25T04:31:44.020Z,6.07
2022-08-25T04:34:29.005Z,5.70
2022-08-25T04:37:00.657Z,6.23
2022-08-25T04:39:31.245Z,6.60
2022-08-25T04:42:00.899Z,6.23
2022-08-25T04:44:30.995Z,6.37
2022-08-25T04:46:59.825Z,6.50
2022-08-25T04:49:28.843Z,6.47
2022-08-25T04:51:57.686Z,6.57
2022-08-25T04:54:26.408Z,6.77
2022-08-25T04:56:58.201Z,6.60
2022-08-25T04:59:30.202Z,6.60
2022-08-25T05:02:02.864Z,6.53
2022-08-25T05:04:32.713Z,6.63
2022-08-25T05:07:01.911Z,6.37
2022-08-25T05:09:32.146Z,6.03
2022-08-25T05:12:06.243Z,6.07
2022-08-25T05:14:35.416Z,5.93
2022-08-25T05:17:04.059Z,6.13
2022-08-25T05:19:32.550Z,5.87
2022-08-25T05:22:01.274Z,5.70
2022-08-25T05:24:30.029Z,6.07
2022-08-25T05:26:59.368Z,6.40
2022-08-25T05:29:29.286Z,5.90
2022-08-25T05:31:59.961Z,6.17
2022-08-25T05:34:28.521Z,6.37
2022-08-25T05:37:00.188Z,6.43
2022-08-25T05:39:32.453Z,6.50
2022-08-25T05:42:01.318Z,6.57
2022-08-25T05:44:31.639Z,6.23
2022-08-25T05:47:00.173Z,6.23
2022-08-25T05:49:28.870Z,5.60
2022-08-25T05:51:57.498Z,6.00
2022-08-25T05:54:26.260Z,6.17
2022-08-25T05:56:54.801Z,5.70
2022-08-25T05:59:23.669Z,5.90
2022-08-25T06:02:10.972Z,5.60
2022-08-25T06:04:41.316Z,6.03
2022-08-25T06:07:10.681Z,5.77
2022-08-25T06:09:39.754Z,5.83
2022-08-25T06:12:09.351Z,5.93
2022-08-25T06:14:38.094Z,5.40
2022-08-25T06:17:08.062Z,5.80
2022-08-25T06:19:37.064Z,5.30
2022-08-25T06:22:08.406Z,5.07
2022-08-25T06:24:37.185Z,5.17
2022-08-25T06:27:06.052Z,5.17
2022-08-25T06:29:34.620Z,5.07
2022-08-25T06:32:03.179Z,4.77
2022-08-25T06:34:34.179Z,5.00
2022-08-25T06:37:03.021Z,5.20
2022-08-25T06:39:31.548Z,4.90
2022-08-25T06:42:00.147Z,4.70
2022-08-25T06:44:30.527Z,4.53
2022-08-25T06:46:59.269Z,5.00
2022-08-25T06:49:30.910Z,4.67
2022-08-25T06:52:04.930Z,4.83
2022-08-25T06:54:33.404Z,4.20
2022-08-25T06:57:02.178Z,4.33
2022-08-25T06:59:32.393Z,4.37
2022-08-25T07:02:01.566Z,4.00
2022-08-25T07:04:33.262Z,4.05
2022-08-25T07:07:04.324Z,4.30
2022-08-25T07:09:35.330Z,3.97
2022-08-25T07:12:08.161Z,4.32
2022-08-25T07:14:37.091Z,4.40
2022-08-25T07:17:12.108Z,4.05
2022-08-25T07:19:41.285Z,3.90
2022-08-25T07:22:11.354Z,3.50
2022-08-25T07:24:39.959Z,3.70
2022-08-25T07:27:08.844Z,3.20
2022-08-25T07:29:42.288Z,3.80
2022-08-25T07:32:11.397Z,3.60
2022-08-25T07:34:57.199Z,3.45
2022-08-25T07:37:47.845Z,3.40
2022-08-25T07:40:21.324Z,3.80
2022-08-25T07:42:50.659Z,3.50
2022-08-25T07:45:20.681Z,3.08
2022-08-25T07:47:52.200Z,3.30
2022-08-25T07:50:21.734Z,3.60
2022-08-25T07:53:04.762Z,3.45
2022-08-25T07:55:36.490Z,2.70
2022-08-25T07:58:06.588Z,2.95
2022-08-25T08:00:37.022Z,3.20
2022-08-25T08:03:08.196Z,3.42
2022-08-25T08:05:42.233Z,2.95
2022-08-25T08:08:12.445Z,2.75
2022-08-25T08:11:04.909Z,2.85
2022-08-25T08:13:29.651Z,3.47
2022-08-25T08:15:58.594Z,3.25
2022-08-25T08:18:27.482Z,2.85
2022-08-25T08:20:56.265Z,3.30
2022-08-25T08:23:27.858Z,2.67
2022-08-25T08:25:56.431Z,2.65
2022-08-25T08:28:27.919Z,2.92
2022-08-25T08:30:56.643Z,2.90
2022-08-25T08:33:27.638Z,2.60
2022-08-25T08:36:05.270Z,2.90
2022-08-25T08:38:36.605Z,2.60
2022-08-25T08:41:54.302Z,3.00
2022-08-25T08:44:31.493Z,2.50
2022-08-25T08:47:07.130Z,2.80
2022-08-25T08:49:47.274Z,2.38
2022-08-25T08:52:20.185Z,2.00
2022-08-25T08:54:56.374Z,2.60
2022-08-25T08:57:28.406Z,2.70
2022-08-25T09:00:03.642Z,2.72
2022-08-25T09:02:50.040Z,2.65
2022-08-25T09:05:24.272Z,2.55
2022-08-25T09:08:00.154Z,2.92
2022-08-25T09:10:39.393Z,2.65
2022-08-25T09:13:15.318Z,2.90
2022-08-25T09:16:09.470Z,3.28
2022-08-25T09:18:50.854Z,2.70
2022-08-25T09:21:31.303Z,2.30
2022-08-25T09:24:27.266Z,2.30
2022-08-25T09:27:11.926Z,2.30
2022-08-25T09:29:57.110Z,2.67
2022-08-25T09:32:31.592Z,2.80
2022-08-25T09:35:02.523Z,2.50
2022-08-25T09:37:31.210Z,2.70
2022-08-25T09:40:01.161Z,2.70
2022-08-25T09:42:49.984Z,2.53
2022-08-25T09:45:34.272Z,2.75
2022-08-25T09:48:02.841Z,3.65
2022-08-25T09:50:34.933Z,2.97
2022-08-25T09:53:17.442Z,2.65
2022-08-25T09:56:00.132Z,2.55
2022-08-25T09:58:30.422Z,2.97
2022-08-25T10:01:14.388Z,3.30
2022-08-25T10:04:06.690Z,2.85
2022-08-25T10:06:47.031Z,2.92
2022-08-25T10:09:29.461Z,2.60
2022-08-25T10:12:01.212Z,2.60
2022-08-25T10:14:36.520Z,2.70
2022-08-25T10:17:27.631Z,2.75
2022-08-25T10:20:15.532Z,2.65
2022-08-25T10:22:45.348Z,2.50
2022-08-25T10:25:27.721Z,2.80
2022-08-25T10:28:12.802Z,2.50
2022-08-25T10:30:58.372Z,2.80
2022-08-25T10:33:34.956Z,2.60
2022-08-25T10:36:09.587Z,2.70
2022-08-25T10:38:43.355Z,2.88
2022-08-25T10:41:44.415Z,2.67
2022-08-25T10:44:38.605Z,2.80
2022-08-25T10:47:42.047Z,2.80
2022-08-25T10:50:30.509Z,3.05
2022-08-25T10:53:16.955Z,2.70
2022-08-25T10:55:53.642Z,3.20
2022-08-25T10:58:31.011Z,2.95
2022-08-25T11:01:09.602Z,2.40
2022-08-25T11:03:52.142Z,2.90
2022-08-25T11:06:24.804Z,2.95
2022-08-25T11:08:56.568Z,2.50
2022-08-25T11:11:32.943Z,2.83
2022-08-25T11:14:11.226Z,2.50
2022-08-25T11:16:48.591Z,2.50
2022-08-25T11:19:24.300Z,2.72
2022-08-25T11:22:02.011Z,2.35
2022-08-25T11:24:42.946Z,2.15
2022-08-25T11:27:19.569Z,2.25
2022-08-25T11:29:59.890Z,2.10
2022-08-25T11:32:33.690Z,2.30
2022-08-25T11:35:06.100Z,2.33
2022-08-25T11:37:35.914Z,1.90
2022-08-25T11:40:36.884Z,2.47
2022-08-25T11:43:24.487Z,1.88
2022-08-25T11:46:02.784Z,2.10
2022-08-25T11:48:41.049Z,2.00
2022-08-25T11:51:12.954Z,2.10
2022-08-25T11:53:43.111Z,2.30
2022-08-25T11:56:14.076Z,1.92
2022-08-25T11:58:47.734Z,2.50
2022-08-25T12:02:11.162Z,2.40
2022-08-25T12:04:44.920Z,1.98
2022-08-25T12:07:24.613Z,2.17
2022-08-25T12:10:21.611Z,2.20
2022-08-25T12:13:01.051Z,2.30
2022-08-25T12:15:34.837Z,2.17
2022-08-25T12:18:13.942Z,2.47
2022-08-25T12:21:29.268Z,2.30
2022-08-25T12:24:15.871Z,2.42
2022-08-25T12:26:53.204Z,2.20
2022-08-25T12:29:36.383Z,2.40
2022-08-25T12:32:42.819Z,2.33
2022-08-25T12:35:25.025Z,2.30
2022-08-25T12:38:07.115Z,2.05
2022-08-25T12:40:40.822Z,2.00
2022-08-25T12:43:12.693Z,2.38
2022-08-25T12:45:45.155Z,2.58
2022-08-25T12:48:44.053Z,2.50
2022-08-25T12:51:19.751Z,2.50
2022-08-25T12:53:53.421Z,2.30
2022-08-25T12:56:29.018Z,2.58
2022-08-25T12:59:12.393Z,2.45
2022-08-25T13:02:02.951Z,2.60
2022-08-25T13:05:04.252Z,2.47
2022-08-25T13:07:49.079Z,2.42
2022-08-25T13:10:39.517Z,2.20
2022-08-25T13:13:20.856Z,2.70
2022-08-25T13:16:00.421Z,2.60
2022-08-25T13:18:31.840Z,2.60
2022-08-25T13:21:09.639Z,2.50
2022-08-25T13:23:41.952Z,2.72
2022-08-25T13:26:13.591Z,2.60
2022-08-25T13:28:51.095Z,2.30
2022-08-25T13:31:22.280Z,2.50
2022-08-25T13:33:55.704Z,2.35
2022-08-25T13:36:51.950Z,2.40
2022-08-25T13:39:45.731Z,2.25
2022-08-25T13:42:17.007Z,2.22
2022-08-25T13:44:51.759Z,2.30
2022-08-25T13:47:43.732Z,2.50
2022-08-25T13:50:22.590Z,2.30
2022-08-25T13:52:55.478Z,2.30
2022-08-25T13:55:27.824Z,2.25
2022-08-25T13:57:59.174Z,2.50
2022-08-25T14:00:35.150Z,2.10
2022-08-25T14:03:12.843Z,2.35
2022-08-25T14:05:44.397Z,2.00
2022-08-25T14:08:32.556Z,2.30
2022-08-25T14:11:14.656Z,1.90
2022-08-25T14:13:45.319Z,1.80
2022-08-25T14:16:19.970Z,1.90
2022-08-25T14:18:52.065Z,2.10
2022-08-25T14:21:24.967Z,1.58
2022-08-25T14:23:54.438Z,2.08
2022-08-25T14:26:23.505Z,1.80
2022-08-25T14:28:55.563Z,1.80
2022-08-25T14:31:29.089Z,1.80
2022-08-25T14:34:00.782Z,2.00
2022-08-25T14:36:31.611Z,2.00
2022-08-25T14:39:00.665Z,2.33
2022-08-25T14:41:30.245Z,2.25
2022-08-25T14:43:58.889Z,1.80
2022-08-25T14:46:32.123Z,2.20
2022-08-25T14:49:03.884Z,2.03
2022-08-25T14:51:34.359Z,2.10
2022-08-25T14:54:08.898Z,2.33
2022-08-25T14:56:37.943Z,2.70
2022-08-25T14:59:11.562Z,2.00
2022-08-25T15:01:41.839Z,2.20
2022-08-25T15:04:15.659Z,2.00
2022-08-25T15:06:45.687Z,1.98
2022-08-25T15:09:16.590Z,2.00
2022-08-25T15:11:48.356Z,1.95
2022-08-25T15:14:28.764Z,1.90
2022-08-25T15:17:03.707Z,2.33
2022-08-25T15:19:32.431Z,2.20
2022-08-25T15:22:01.323Z,2.20
2022-08-25T15:24:30.189Z,2.00
2022-08-25T15:27:00.440Z,2.70
2022-08-25T15:29:31.504Z,2.00
2022-08-25T15:32:00.809Z,2.25
2022-08-25T15:34:31.159Z,2.08
2022-08-25T15:37:06.942Z,2.08
2022-08-25T15:39:36.069Z,2.58
2022-08-25T15:42:05.586Z,2.25
2022-08-25T15:44:34.873Z,1.90
2022-08-25T15:47:04.810Z,2.30
2022-08-25T15:49:35.672Z,2.20
2022-08-25T15:52:04.918Z,2.20
2022-08-25T15:54:33.838Z,2.25
2022-08-25T15:57:09.178Z,2.30
2022-08-25T15:59:41.058Z,2.20
2022-08-25T16:02:14.906Z,2.20
2022-08-25T16:04:45.452Z,2.30
2022-08-25T16:07:13.992Z,2.30
2022-08-25T16:09:43.221Z,2.42
2022-08-25T16:12:13.003Z,2.28
2022-08-25T16:14:41.883Z,2.45
2022-08-25T16:17:10.451Z,2.30
2022-08-25T16:19:39.445Z,2.42
2022-08-25T16:22:11.156Z,2.30
2022-08-25T16:24:40.221Z,2.20
2022-08-25T16:27:12.129Z,2.30
2022-08-25T16:29:42.493Z,2.00
2022-08-25T16:32:13.410Z,2.20
2022-08-25T16:34:42.758Z,2.35
2022-08-25T16:37:14.652Z,2.60
2022-08-25T16:39:46.094Z,2.35
2022-08-25T16:42:14.896Z,2.30
2022-08-25T16:44:43.537Z,2.53
2022-08-25T16:47:14.421Z,2.20
2022-08-25T16:49:47.124Z,2.00
2022-08-25T16:52:35.189Z,2.30
2022-08-25T16:55:16.810Z,2.30
2022-08-25T16:57:47.614Z,2.60
2022-08-25T17:00:19.398Z,2.30
2022-08-25T17:02:48.725Z,2.40
2022-08-25T17:05:18.287Z,2.20
2022-08-25T17:08:08.779Z,2.40
2022-08-25T17:10:39.662Z,2.72
2022-08-25T17:13:08.727Z,2.50
2022-08-25T17:15:42.080Z,2.10
2022-08-25T17:18:12.658Z,2.65
2022-08-25T17:20:42.339Z,2.70
2022-08-25T17:23:13.919Z,2.50
2022-08-25T17:25:44.038Z,2.70
2022-08-25T17:28:13.220Z,2.80
2022-08-25T17:30:43.316Z,2.63
2022-08-25T17:33:12.316Z,2.72
2022-08-25T17:35:42.278Z,2.65
2022-08-25T17:38:13.481Z,3.22
2022-08-25T17:40:42.364Z,2.72
2022-08-25T17:43:11.154Z,2.90
2022-08-25T17:45:40.791Z,3.00
2022-08-25T17:48:10.689Z,2.97
2022-08-25T17:50:40.843Z,3.13
2022-08-25T17:53:10.606Z,3.20
2022-08-25T17:55:43.113Z,3.15
2022-08-25T17:58:14.090Z,3.17
2022-08-25T18:00:45.750Z,3.28
2022-08-25T18:03:14.502Z,3.30
2022-08-25T18:05:45.202Z,3.33
2022-08-25T18:08:16.198Z,3.42
2022-08-25T18:10:49.006Z,3.70
2022-08-25T18:13:18.127Z,3.65
2022-08-25T18:15:47.533Z,3.65
2022-08-25T18:18:16.348Z,3.53
2022-08-25T18:20:46.802Z,3.75
2022-08-25T18:23:15.702Z,3.70
2022-08-25T18:25:46.306Z,3.65
2022-08-25T18:28:16.276Z,3.70
2022-08-25T18:30:46.082Z,3.60
2022-08-25T18:33:15.630Z,3.67
2022-08-25T18:35:44.393Z,3.83
2022-08-25T18:38:30.387Z,3.90
2022-08-25T18:41:06.437Z,3.63
2022-08-25T18:43:35.252Z,4.00
2022-08-25T18:46:05.683Z,4.13
2022-08-25T18:48:34.705Z,4.22
2022-08-25T18:51:04.373Z,4.00
2022-08-25T18:53:37.491Z,4.32
2022-08-25T18:56:20.098Z,4.25
2022-08-25T18:58:49.136Z,4.05
2022-08-25T19:01:20.003Z,4.25
2022-08-25T19:03:50.434Z,4.00
2022-08-25T19:06:20.643Z,4.32
2022-08-25T19:08:49.448Z,4.18
2022-08-25T19:11:22.350Z,4.20
2022-08-25T19:13:51.301Z,4.10
2022-08-25T19:16:32.750Z,4.40
2022-08-25T19:19:03.662Z,4.28
2022-08-25T19:21:32.479Z,4.32
2022-08-25T19:24:03.192Z,4.25
2022-08-25T19:26:35.417Z,4.40
2022-08-25T19:29:08.943Z,4.70
2022-08-25T19:31:39.318Z,4.20
2022-08-25T19:34:09.871Z,4.40
2022-08-25T19:36:38.623Z,4.43
2022-08-25T19:39:11.509Z,4.35
2022-08-25T19:41:42.329Z,4.47
2022-08-25T19:44:12.957Z,4.50
2022-08-25T19:46:43.609Z,4.53
2022-08-25T19:49:15.067Z,4.40
2022-08-25T19:51:51.081Z,4.03
2022-08-25T19:54:23.833Z,4.40
2022-08-25T19:56:55.723Z,4.70
2022-08-25T19:59:42.328Z,4.75
2022-08-25T20:02:15.340Z,4.53
2022-08-25T20:04:49.407Z,4.47
2022-08-25T20:07:20.214Z,4.40
2022-08-25T20:09:49.446Z,4.60
2022-08-25T20:12:20.467Z,4.57
2022-08-25T20:14:50.508Z,4.30
2022-08-25T20:17:24.190Z,4.70
2022-08-25T20:19:57.287Z,4.70
2022-08-25T20:22:27.821Z,4.70
2022-08-25T20:24:58.505Z,4.45
2022-08-25T20:27:34.518Z,5.00
2022-08-25T20:30:07.891Z,5.18
2022-08-25T20:32:37.161Z,4.68
2022-08-25T20:35:09.577Z,5.00
2022-08-25T20:37:43.228Z,4.88
2022-08-25T20:40:14.539Z,4.80
2022-08-25T20:42:45.648Z,4.88
2022-08-25T20:45:15.801Z,5.05
2022-08-25T20:47:45.511Z,5.20
2022-08-25T20:50:15.200Z,4.82
2022-08-25T20:52:44.088Z,6.40
2022-08-25T20:55:13.954Z,4.60
2022-08-25T20:57:42.479Z,4.82
2022-08-25T21:00:14.130Z,4.80
2022-08-25T21:02:46.386Z,4.85
2022-08-25T21:05:15.985Z,4.53
2022-08-25T21:07:44.663Z,4.68
2022-08-25T21:10:14.707Z,5.10
2022-08-25T21:12:45.159Z,5.10
2022-08-25T21:15:18.311Z,4.80
2022-08-25T21:17:51.262Z,5.00
2022-08-25T21:20:19.918Z,5.35
2022-08-25T21:22:49.391Z,5.22
2022-08-25T21:25:19.307Z,5.18
2022-08-25T21:27:49.333Z,5.43
2022-08-25T21:30:20.675Z,5.30
2022-08-25T21:32:53.995Z,5.20
2022-08-25T21:35:23.687Z,5.10
2022-08-25T21:37:53.859Z,4.80
2022-08-25T21:40:23.873Z,4.97
2022-08-25T21:42:53.432Z,4.93
2022-08-25T21:45:23.405Z,4.90
2022-08-25T21:47:52.593Z,6.13
2022-08-25T21:50:21.525Z,5.60
2022-08-25T21:52:54.745Z,5.23
2022-08-25T21:55:23.778Z,5.47
2022-08-25T21:57:52.881Z,5.60
2022-08-25T22:00:23.607Z,4.93
2022-08-25T22:02:52.991Z,5.17
2022-08-25T22:05:21.879Z,5.67
2022-08-25T22:07:50.471Z,4.90
2022-08-25T22:10:21.193Z,5.00
2022-08-25T22:12:53.122Z,5.20
2022-08-25T22:15:24.068Z,5.17
2022-08-25T22:17:53.035Z,5.40
2022-08-25T22:20:21.823Z,5.70
2022-08-25T22:22:50.512Z,5.50
2022-08-25T22:25:19.347Z,5.70
2022-08-25T22:27:47.987Z,5.40
2022-08-25T22:30:29.584Z,5.43
2022-08-25T22:32:59.709Z,5.50
2022-08-25T22:35:29.798Z,6.10
2022-08-25T22:37:58.425Z,5.83
2022-08-25T22:40:27.464Z,6.10
2022-08-25T22:42:57.655Z,6.13
2022-08-25T22:45:29.076Z,6.30
2022-08-25T22:47:57.816Z,6.10
2022-08-25T22:50:26.943Z,5.90
2022-08-25T22:52:55.731Z,6.40
2022-08-25T22:55:24.365Z,6.20
2022-08-25T22:57:56.748Z,6.30
2022-08-25T23:00:25.711Z,6.10
2022-08-25T23:02:56.212Z,6.23
2022-08-25T23:05:25.002Z,6.23
2022-08-25T23:07:53.581Z,5.93
2022-08-25T23:10:22.885Z,6.40
2022-08-25T23:12:51.835Z,6.80
2022-08-25T23:15:20.631Z,6.50
2022-08-25T23:17:50.162Z,6.57
2022-08-25T23:20:45.156Z,6.50
2022-08-25T23:23:15.028Z,6.70
2022-08-25T23:25:43.796Z,6.90
2022-08-25T23:28:12.892Z,6.57
2022-08-25T23:30:42.730Z,6.70
2022-08-25T23:33:18.691Z,6.40
2022-08-25T23:35:59.532Z,6.00
2022-08-25T23:38:28.794Z,6.60
2022-08-25T23:40:58.095Z,6.20
2022-08-25T23:43:26.976Z,5.97
2022-08-25T23:45:55.963Z,6.00
2022-08-25T23:48:25.238Z,6.30
2022-08-25T23:50:55.086Z,6.03
2022-08-25T23:53:25.373Z,6.07
2022-08-25T23:55:54.764Z,5.87
2022-08-25T23:58:24.440Z,5.90
